createdAt,value
2022-12-25T00:00:48.636Z,1005.76
2022-12-25T00:01:48.557Z,1005.74
2022-12-25T00:02:48.659Z,1005.75
2022-12-25T00:03:48.737Z,1005.75
2022-12-25T00:04:48.529Z,1005.75
2022-12-25T00:05:48.512Z,1005.72
2022-12-25T00:06:48.516Z,1005.67
2022-12-25T00:07:48.479Z,1005.64
2022-12-25T00:08:48.501Z,1005.61
2022-12-25T00:09:48.461Z,1005.59
2022-12-25T00:10:48.467Z,1005.55
2022-12-25T00:11:48.441Z,1005.53
2022-12-25T00:12:48.453Z,1005.51
2022-12-25T00:13:48.465Z,1005.48
2022-12-25T00:14:48.482Z,1005.47
2022-12-25T00:15:48.445Z,1005.46
2022-12-25T00:16:48.487Z,1005.45
2022-12-25T00:17:48.375Z,1005.45
2022-12-25T00:18:48.382Z,1005.45
2022-12-25T00:19:48.351Z,1005.43
2022-12-25T00:20:48.380Z,1005.40
2022-12-25T00:21:48.328Z,1005.34
2022-12-25T00:22:48.338Z,1005.30
2022-12-25T00:23:48.339Z,1005.28
2022-12-25T00:24:48.322Z,1005.27
2022-12-25T00:25:48.303Z,1005.28
2022-12-25T00:26:48.313Z,1005.29
2022-12-25T00:27:48.265Z,1005.28
2022-12-25T00:28:48.272Z,1005.26
2022-12-25T00:29:48.257Z,1005.25
2022-12-25T00:30:48.244Z,1005.24
2022-12-25T00:31:48.332Z,1005.23
2022-12-25T00:32:48.231Z,1005.25
2022-12-25T00:33:48.203Z,1005.26
2022-12-25T00:34:48.212Z,1005.28
2022-12-25T00:35:48.193Z,1005.28
2022-12-25T00:36:48.176Z,1005.29
2022-12-25T00:37:48.181Z,1005.30
2022-12-25T00:38:48.184Z,1005.32
2022-12-25T00:39:48.144Z,1005.33
2022-12-25T00:40:48.125Z,1005.36
2022-12-25T00:41:48.144Z,1005.33
2022-12-25T00:42:48.121Z,1005.31
2022-12-25T00:43:48.194Z,1005.29
2022-12-25T00:44:48.165Z,1005.30
2022-12-25T00:45:48.229Z,1005.32
2022-12-25T00:46:48.196Z,1005.35
2022-12-25T00:47:48.083Z,1005.37
2022-12-25T00:48:48.051Z,1005.38
2022-12-25T00:49:48.053Z,1005.41
2022-12-25T00:50:48.065Z,1005.46
2022-12-25T00:51:48.039Z,1005.50
2022-12-25T00:52:48.015Z,1005.54
2022-12-25T00:53:48.008Z,1005.56
2022-12-25T00:54:47.972Z,1005.56
2022-12-25T00:55:47.987Z,1005.56
2022-12-25T00:56:47.980Z,1005.53
2022-12-25T00:57:47.958Z,1005.50
2022-12-25T00:58:47.936Z,1005.47
2022-12-25T00:59:47.932Z,1005.47
2022-12-25T01:00:48.003Z,1005.46
2022-12-25T01:01:48.182Z,1005.44
2022-12-25T01:02:48.019Z,1005.40
2022-12-25T01:03:47.902Z,1005.36
2022-12-25T01:04:47.878Z,1005.34
2022-12-25T01:05:47.880Z,1005.30
2022-12-25T01:06:47.850Z,1005.28
2022-12-25T01:07:47.868Z,1005.28
2022-12-25T01:08:47.839Z,1005.31
2022-12-25T01:09:47.836Z,1005.31
2022-12-25T01:10:47.810Z,1005.33
2022-12-25T01:11:47.814Z,1005.33
2022-12-25T01:12:47.790Z,1005.33
2022-12-25T01:13:47.806Z,1005.33
2022-12-25T01:14:47.790Z,1005.33
2022-12-25T01:15:47.755Z,1005.35
2022-12-25T01:16:47.792Z,1005.37
2022-12-25T01:17:47.769Z,1005.38
2022-12-25T01:18:47.736Z,1005.40
2022-12-25T01:19:47.791Z,1005.40
2022-12-25T01:20:47.744Z,1005.39
2022-12-25T01:21:47.701Z,1005.41
2022-12-25T01:22:47.667Z,1005.45
2022-12-25T01:23:47.691Z,1005.48
2022-12-25T01:24:47.659Z,1005.53
2022-12-25T01:25:47.657Z,1005.54
2022-12-25T01:26:47.650Z,1005.56
2022-12-25T01:27:47.628Z,1005.55
2022-12-25T01:28:47.614Z,1005.56
2022-12-25T01:29:47.633Z,1005.58
2022-12-25T01:30:47.595Z,1005.60
2022-12-25T01:31:47.622Z,1005.65
2022-12-25T01:32:47.593Z,1005.66
2022-12-25T01:33:47.591Z,1005.69
2022-12-25T01:34:52.078Z,1005.68
2022-12-25T01:35:47.563Z,1005.65
2022-12-25T01:36:47.531Z,1005.66
2022-12-25T01:37:47.563Z,1005.65
2022-12-25T01:38:47.519Z,1005.63
2022-12-25T01:39:47.503Z,1005.61
2022-12-25T01:40:47.490Z,1005.58
2022-12-25T01:41:47.490Z,1005.56
2022-12-25T01:42:47.459Z,1005.52
2022-12-25T01:43:47.503Z,1005.52
2022-12-25T01:44:47.444Z,1005.52
2022-12-25T01:45:47.561Z,1005.53
2022-12-25T01:46:47.423Z,1005.58
2022-12-25T01:47:47.417Z,1005.61
2022-12-25T01:48:47.408Z,1005.61
2022-12-25T01:49:47.419Z,1005.60
2022-12-25T01:50:47.367Z,1005.61
2022-12-25T01:51:47.380Z,1005.62
2022-12-25T01:52:47.358Z,1005.63
2022-12-25T01:53:47.356Z,1005.64
2022-12-25T01:54:47.385Z,1005.60
2022-12-25T01:55:47.354Z,1005.57
2022-12-25T01:56:47.353Z,1005.50
2022-12-25T01:57:47.308Z,1005.44
2022-12-25T01:58:47.306Z,1005.43
2022-12-25T01:59:47.286Z,1005.46
2022-12-25T02:00:47.333Z,1005.47
2022-12-25T02:01:47.415Z,1005.47
2022-12-25T02:02:47.365Z,1005.48
2022-12-25T02:03:47.238Z,1005.44
2022-12-25T02:04:47.217Z,1005.40
2022-12-25T02:05:47.225Z,1005.37
2022-12-25T02:06:47.368Z,1005.38
2022-12-25T02:07:47.211Z,1005.41
2022-12-25T02:08:47.171Z,1005.42
2022-12-25T02:09:47.175Z,1005.41
2022-12-25T06:01:03.660Z,1004.78
2022-12-25T06:02:04.732Z,1004.76
2022-12-25T06:03:04.717Z,1004.74
2022-12-25T06:04:08.543Z,1004.72
2022-12-25T06:05:04.600Z,1004.72
2022-12-25T06:06:04.617Z,1004.71
2022-12-25T06:07:04.560Z,1004.70
2022-12-25T06:08:04.569Z,1004.70
2022-12-25T06:09:04.536Z,1004.71
2022-12-25T06:10:04.585Z,1004.72
2022-12-25T06:11:04.585Z,1004.74
2022-12-25T06:12:04.525Z,1004.73
2022-12-25T06:13:04.489Z,1004.73
2022-12-25T06:14:04.507Z,1004.70
2022-12-25T06:15:04.472Z,1004.68
2022-12-25T06:16:04.510Z,1004.66
2022-12-25T06:17:04.531Z,1004.67
2022-12-25T06:18:04.461Z,1004.67
2022-12-25T06:19:04.438Z,1004.67
2022-12-25T06:20:04.460Z,1004.66
2022-12-25T06:21:04.455Z,1004.64
2022-12-25T06:22:04.462Z,1004.60
2022-12-25T06:23:04.399Z,1004.58
2022-12-25T06:24:04.530Z,1004.56
2022-12-25T06:25:04.368Z,1004.55
2022-12-25T06:26:04.371Z,1004.56
2022-12-25T06:27:04.383Z,1004.56
2022-12-25T06:28:04.341Z,1004.55
2022-12-25T06:29:04.348Z,1004.52
2022-12-25T06:30:04.341Z,1004.48
2022-12-25T06:31:04.360Z,1004.45
2022-12-25T06:32:04.452Z,1004.41
2022-12-25T06:33:04.313Z,1004.38
2022-12-25T06:34:04.291Z,1004.37
2022-12-25T06:35:04.266Z,1004.36
2022-12-25T06:36:04.252Z,1004.35
2022-12-25T06:37:04.239Z,1004.35
2022-12-25T06:38:04.244Z,1004.38
2022-12-25T06:39:04.228Z,1004.40
2022-12-25T06:40:04.225Z,1004.42
2022-12-25T06:41:04.200Z,1004.43
2022-12-25T06:42:04.209Z,1004.43
2022-12-25T06:43:04.173Z,1004.44
2022-12-25T06:44:04.205Z,1004.44
2022-12-25T06:45:04.153Z,1004.44
2022-12-25T06:46:04.271Z,1004.43
2022-12-25T06:47:04.147Z,1004.41
2022-12-25T06:48:04.123Z,1004.41
2022-12-25T06:49:04.116Z,1004.40
2022-12-25T06:50:04.146Z,1004.43
2022-12-25T06:51:04.129Z,1004.45
2022-12-25T06:52:04.282Z,1004.47
2022-12-25T06:53:04.066Z,1004.46
2022-12-25T06:54:04.295Z,1004.45
2022-12-25T06:55:04.047Z,1004.44
2022-12-25T06:56:04.045Z,1004.43
2022-12-25T06:57:04.045Z,1004.42
2022-12-25T06:58:03.978Z,1004.41
2022-12-25T06:59:03.979Z,1004.41
2022-12-25T07:00:03.963Z,1004.41
2022-12-25T07:01:04.032Z,1004.41
2022-12-25T07:02:04.017Z,1004.42
2022-12-25T07:03:04.046Z,1004.45
2022-12-25T07:04:03.926Z,1004.47
2022-12-25T07:05:03.882Z,1004.47
2022-12-25T07:06:03.892Z,1004.48
2022-12-25T07:07:08.703Z,1004.47
2022-12-25T07:08:03.869Z,1004.47
2022-12-25T07:09:03.863Z,1004.48
2022-12-25T07:10:03.843Z,1004.49
2022-12-25T07:11:03.819Z,1004.52
2022-12-25T07:12:03.835Z,1004.54
2022-12-25T07:13:03.828Z,1004.53
2022-12-25T07:14:03.805Z,1004.52
2022-12-25T07:15:03.796Z,1004.51
2022-12-25T07:16:03.866Z,1004.49
2022-12-25T07:17:03.755Z,1004.49
2022-12-25T07:18:03.759Z,1004.50
2022-12-25T07:19:03.725Z,1004.49
2022-12-25T07:20:03.756Z,1004.48
2022-12-25T07:21:03.716Z,1004.46
2022-12-25T07:22:03.718Z,1004.47
2022-12-25T07:23:03.701Z,1004.52
2022-12-25T07:24:03.699Z,1004.53
2022-12-25T07:25:03.661Z,1004.53
2022-12-25T07:26:03.698Z,1004.52
2022-12-25T07:27:03.683Z,1004.51
2022-12-25T07:28:03.711Z,1004.51
2022-12-25T07:29:03.670Z,1004.49
2022-12-25T07:30:03.644Z,1004.49
2022-12-25T07:31:03.595Z,1004.49
2022-12-25T07:32:03.705Z,1004.49
2022-12-25T07:33:03.576Z,1004.47
2022-12-25T07:34:03.597Z,1004.43
2022-12-25T07:35:03.565Z,1004.36
2022-12-25T07:36:03.558Z,1004.32
2022-12-25T07:37:03.533Z,1004.32
2022-12-25T07:38:03.560Z,1004.35
2022-12-25T07:39:03.530Z,1004.37
2022-12-25T07:40:03.529Z,1004.36
2022-12-25T07:41:03.504Z,1004.34
2022-12-25T07:42:03.505Z,1004.32
2022-12-25T07:43:03.479Z,1004.32
2022-12-25T07:44:03.469Z,1004.30
2022-12-25T07:45:03.484Z,1004.26
2022-12-25T07:46:03.579Z,1004.24
2022-12-25T07:47:03.439Z,1004.23
2022-12-25T07:48:05.800Z,1004.25
2022-12-25T07:49:03.422Z,1004.27
2022-12-25T07:50:03.421Z,1004.29
2022-12-25T07:51:03.412Z,1004.29
2022-12-25T07:52:03.406Z,1004.27
2022-12-25T07:53:03.366Z,1004.26
2022-12-25T07:54:03.372Z,1004.27
2022-12-25T07:55:03.376Z,1004.34
2022-12-25T07:56:03.348Z,1004.39
2022-12-25T07:57:03.367Z,1004.42
2022-12-25T07:58:03.324Z,1004.42
2022-12-25T07:59:03.296Z,1004.38
2022-12-25T08:00:03.298Z,1004.34
2022-12-25T08:01:03.384Z,1004.33
2022-12-25T08:02:03.520Z,1004.32
2022-12-25T08:03:03.517Z,1004.31
2022-12-25T08:04:03.344Z,1004.28
2022-12-25T08:05:03.243Z,1004.25
2022-12-25T08:06:03.212Z,1004.23
2022-12-25T08:07:03.239Z,1004.24
2022-12-25T08:08:03.200Z,1004.26
2022-12-25T08:09:03.209Z,1004.28
2022-12-25T08:10:03.218Z,1004.31
2022-12-25T08:11:03.183Z,1004.35
2022-12-25T08:12:03.176Z,1004.37
2022-12-25T08:13:06.492Z,1004.36
2022-12-25T08:14:03.154Z,1004.31
2022-12-25T08:15:03.144Z,1004.26
2022-12-25T08:16:03.114Z,1004.19
2022-12-25T08:17:03.214Z,1004.13
2022-12-25T08:18:03.091Z,1004.08
2022-12-25T08:19:03.128Z,1004.05
2022-12-25T08:20:03.103Z,1004.04
2022-12-25T08:21:03.083Z,1004.01
2022-12-25T08:22:03.052Z,1003.96
2022-12-25T08:23:03.066Z,1003.91
2022-12-25T08:24:03.047Z,1003.84
2022-12-25T08:25:03.045Z,1003.80
2022-12-25T08:26:05.305Z,1003.77
2022-12-25T08:27:03.011Z,1003.76
2022-12-25T08:28:02.989Z,1003.73
2022-12-25T08:29:02.986Z,1003.70
2022-12-25T08:30:03.005Z,1003.72
2022-12-25T08:31:03.030Z,1003.74
2022-12-25T08:32:02.942Z,1003.75
2022-12-25T08:33:02.950Z,1003.77
2022-12-25T08:34:02.983Z,1003.80
2022-12-25T08:35:02.936Z,1003.85
2022-12-25T08:36:02.913Z,1003.91
2022-12-25T08:37:02.922Z,1003.97
2022-12-25T08:38:02.890Z,1003.99
2022-12-25T08:39:03.589Z,1003.99
2022-12-25T08:40:02.859Z,1004.04
2022-12-25T08:41:02.878Z,1004.13
2022-12-25T08:42:02.840Z,1004.20
2022-12-25T08:43:02.850Z,1004.24
2022-12-25T08:44:02.803Z,1004.19
2022-12-25T08:45:02.832Z,1004.11
2022-12-25T08:46:02.876Z,1004.00
2022-12-25T08:47:02.807Z,1003.94
2022-12-25T08:48:02.799Z,1003.91
2022-12-25T08:49:02.780Z,1003.89
2022-12-25T08:50:02.756Z,1003.85
2022-12-25T08:51:02.756Z,1003.79
2022-12-25T08:52:02.718Z,1003.70
2022-12-25T08:53:02.729Z,1003.59
2022-12-25T08:54:02.715Z,1003.53
2022-12-25T08:55:02.701Z,1003.54
2022-12-25T08:56:02.821Z,1003.60
2022-12-25T08:57:03.246Z,1003.66
2022-12-25T08:58:02.658Z,1003.71
2022-12-25T08:59:02.718Z,1003.74
2022-12-25T09:00:02.640Z,1003.77
2022-12-25T09:01:02.715Z,1003.81
2022-12-25T09:02:02.759Z,1003.87
2022-12-25T09:03:02.858Z,1003.91
2022-12-25T09:04:02.592Z,1003.94
2022-12-25T09:05:02.619Z,1003.92
2022-12-25T09:06:02.758Z,1003.92
2022-12-25T09:07:02.602Z,1003.95
2022-12-25T09:08:02.557Z,1004.01
2022-12-25T09:09:02.583Z,1004.09
2022-12-25T09:10:02.522Z,1004.14
2022-12-25T09:11:02.543Z,1004.16
2022-12-25T09:12:02.503Z,1004.17
2022-12-25T09:13:02.524Z,1004.16
2022-12-25T09:14:02.492Z,1004.15
2022-12-25T09:15:02.487Z,1004.15
2022-12-25T09:16:02.505Z,1004.16
2022-12-25T09:17:02.487Z,1004.19
2022-12-25T09:18:02.457Z,1004.22
2022-12-25T09:19:02.467Z,1004.26
2022-12-25T09:20:02.426Z,1004.26
2022-12-25T09:21:02.418Z,1004.24
2022-12-25T09:22:02.401Z,1004.21
2022-12-25T09:23:02.413Z,1004.20
2022-12-25T09:24:02.373Z,1004.19
2022-12-25T09:25:02.414Z,1004.16
2022-12-25T09:26:02.411Z,1004.12
2022-12-25T09:27:02.358Z,1004.11
2022-12-25T09:28:02.330Z,1004.09
2022-12-25T09:29:02.365Z,1004.07
2022-12-25T09:30:02.305Z,1004.06
2022-12-25T09:31:02.375Z,1004.05
2022-12-25T09:32:02.321Z,1004.05
2022-12-25T09:33:02.293Z,1004.06
2022-12-25T09:34:02.264Z,1004.05
2022-12-25T09:35:02.302Z,1004.03
2022-12-25T09:36:02.267Z,1004.02
2022-12-25T09:37:02.264Z,1004.02
2022-12-25T09:38:02.221Z,1004.01
2022-12-25T09:39:02.241Z,1004.01
2022-12-25T09:40:02.241Z,1004.00
2022-12-25T09:41:02.261Z,1004.00
2022-12-25T09:42:02.227Z,1003.99
2022-12-25T09:43:02.204Z,1003.97
2022-12-25T09:44:02.163Z,1003.95
2022-12-25T09:45:02.172Z,1003.96
2022-12-25T09:46:02.210Z,1003.97
2022-12-25T09:47:02.227Z,1003.96
2022-12-25T09:48:02.116Z,1003.95
2022-12-25T09:49:02.140Z,1003.92
2022-12-25T09:50:02.093Z,1003.88
2022-12-25T09:51:02.154Z,1003.86
2022-12-25T09:52:02.072Z,1003.84
2022-12-25T09:53:02.105Z,1003.81
2022-12-25T09:54:02.086Z,1003.80
2022-12-25T09:55:02.055Z,1003.83
2022-12-25T09:56:02.025Z,1003.85
2022-12-25T09:57:02.060Z,1003.84
2022-12-25T09:58:02.018Z,1003.81
2022-12-25T09:59:02.017Z,1003.82
2022-12-25T10:00:01.984Z,1003.83
2022-12-25T10:01:01.993Z,1003.85
2022-12-25T10:02:02.116Z,1003.83
2022-12-25T10:03:02.328Z,1003.84
2022-12-25T10:04:01.961Z,1003.83
2022-12-25T10:05:01.942Z,1003.78
2022-12-25T10:06:01.935Z,1003.74
2022-12-25T10:07:01.921Z,1003.68
2022-12-25T10:08:01.901Z,1003.60
2022-12-25T10:09:01.933Z,1003.53
2022-12-25T10:10:01.897Z,1003.46
2022-12-25T10:11:01.884Z,1003.41
2022-12-25T10:12:01.875Z,1003.37
2022-12-25T10:13:01.853Z,1003.35
2022-12-25T10:14:01.838Z,1003.33
2022-12-25T10:15:01.840Z,1003.30
2022-12-25T10:16:01.842Z,1003.26
2022-12-25T10:17:01.856Z,1003.21
2022-12-25T10:18:01.795Z,1003.17
2022-12-25T10:19:01.802Z,1003.14
2022-12-25T10:20:01.833Z,1003.11
2022-12-25T10:21:01.785Z,1003.08
2022-12-25T10:22:01.785Z,1003.03
2022-12-25T10:23:01.808Z,1003.02
2022-12-25T10:24:01.735Z,1003.02
2022-12-25T10:25:01.730Z,1003.00
2022-12-25T10:26:01.738Z,1002.97
2022-12-25T10:27:01.720Z,1002.97
2022-12-25T10:28:01.721Z,1002.99
2022-12-25T10:29:01.701Z,1003.04
2022-12-25T10:30:01.659Z,1003.10
2022-12-25T10:31:01.749Z,1003.16
2022-12-25T10:32:01.651Z,1003.22
2022-12-25T10:33:01.685Z,1003.27
2022-12-25T10:34:01.623Z,1003.30
2022-12-25T10:35:01.638Z,1003.32
2022-12-25T10:36:01.617Z,1003.33
2022-12-25T10:37:01.611Z,1003.33
2022-12-25T10:38:01.618Z,1003.33
2022-12-25T10:39:01.598Z,1003.31
2022-12-25T10:40:01.565Z,1003.29
2022-12-25T10:41:01.576Z,1003.27
2022-12-25T10:42:01.530Z,1003.27
2022-12-25T10:43:01.645Z,1003.28
2022-12-25T10:44:01.557Z,1003.27
2022-12-25T10:45:01.526Z,1003.26
2022-12-25T10:46:01.701Z,1003.22
2022-12-25T10:47:01.539Z,1003.19
2022-12-25T10:48:06.784Z,1003.15
2022-12-25T10:49:01.555Z,1003.10
2022-12-25T10:50:01.477Z,1003.05
2022-12-25T10:51:01.474Z,1003.02
2022-12-25T10:52:01.448Z,1003.00
2022-12-25T10:53:01.463Z,1002.99
2022-12-25T10:54:01.411Z,1002.98
2022-12-25T10:55:01.402Z,1002.99
2022-12-25T10:56:01.393Z,1003.02
2022-12-25T10:57:01.392Z,1003.03
2022-12-25T10:58:01.357Z,1003.02
2022-12-25T10:59:01.384Z,1003.00
2022-12-25T11:00:01.349Z,1003.00
2022-12-25T11:01:01.369Z,1002.99
2022-12-25T11:02:01.415Z,1002.99
2022-12-25T11:03:01.737Z,1003.01
2022-12-25T11:04:01.424Z,1003.01
2022-12-25T11:05:01.307Z,1003.00
2022-12-25T11:06:01.292Z,1002.97
2022-12-25T11:07:01.273Z,1002.92
2022-12-25T11:08:01.280Z,1002.88
2022-12-25T11:09:01.256Z,1002.85
2022-12-25T11:10:05.381Z,1002.84
2022-12-25T11:11:01.265Z,1002.84
2022-12-25T11:12:01.230Z,1002.86
2022-12-25T11:13:01.224Z,1002.89
2022-12-25T11:14:01.243Z,1002.92
2022-12-25T11:15:01.188Z,1002.95
2022-12-25T11:16:01.264Z,1002.95
2022-12-25T11:17:01.187Z,1002.93
2022-12-25T11:18:01.138Z,1002.90
2022-12-25T11:19:01.192Z,1002.87
2022-12-25T11:20:01.197Z,1002.83
2022-12-25T11:21:01.139Z,1002.80
2022-12-25T11:22:01.111Z,1002.79
2022-12-25T11:23:01.137Z,1002.79
2022-12-25T11:24:01.068Z,1002.81
2022-12-25T11:25:01.081Z,1002.82
2022-12-25T11:26:01.155Z,1002.82
2022-12-25T11:27:01.074Z,1002.82
2022-12-25T11:28:01.037Z,1002.81
2022-12-25T11:29:01.036Z,1002.80
2022-12-25T11:30:01.012Z,1002.79
2022-12-25T11:31:01.083Z,1002.79
2022-12-25T11:32:01.018Z,1002.77
2022-12-25T11:33:00.991Z,1002.78
2022-12-25T11:34:01.043Z,1002.80
2022-12-25T11:35:00.968Z,1002.79
2022-12-25T11:36:00.967Z,1002.78
2022-12-25T11:37:00.964Z,1002.76
2022-12-25T11:38:01.009Z,1002.75
2022-12-25T11:39:00.954Z,1002.74
2022-12-25T11:40:00.892Z,1002.73
2022-12-25T11:41:00.932Z,1002.71
2022-12-25T11:42:00.872Z,1002.67
2022-12-25T11:43:07.697Z,1002.65
2022-12-25T11:44:00.877Z,1002.67
2022-12-25T11:45:00.865Z,1002.66
2022-12-25T11:46:00.909Z,1002.69
2022-12-25T11:47:00.897Z,1002.66
2022-12-25T11:48:00.835Z,1002.64
2022-12-25T11:49:00.825Z,1002.56
2022-12-25T11:50:01.280Z,1002.54
2022-12-25T11:51:00.806Z,1002.52
2022-12-25T11:52:00.781Z,1002.51
2022-12-25T11:53:00.819Z,1002.55
2022-12-25T11:54:00.766Z,1002.53
2022-12-25T11:55:00.751Z,1002.49
2022-12-25T11:56:00.760Z,1002.51
2022-12-25T11:57:00.738Z,1002.49
2022-12-25T11:58:00.726Z,1002.43
2022-12-25T11:59:00.707Z,1002.40
2022-12-25T12:00:00.689Z,1002.41
2022-12-25T12:01:00.694Z,1002.39
2022-12-25T12:02:00.809Z,1002.33
2022-12-25T12:03:00.812Z,1002.28
2022-12-25T12:04:00.796Z,1002.23
2022-12-25T12:05:00.679Z,1002.20
2022-12-25T12:06:00.617Z,1002.18
2022-12-25T12:07:00.695Z,1002.15
2022-12-25T12:08:00.646Z,1002.11
2022-12-25T12:09:00.598Z,1002.10
2022-12-25T12:10:00.570Z,1002.08
2022-12-25T12:11:00.580Z,1002.00
2022-12-25T12:12:00.556Z,1001.95
2022-12-25T12:13:00.592Z,1001.92
2022-12-25T12:14:00.526Z,1001.87
2022-12-25T12:15:00.540Z,1001.78
2022-12-25T12:16:00.603Z,1001.69
2022-12-25T12:17:00.568Z,1001.64
2022-12-25T12:18:00.525Z,1001.61
2022-12-25T12:19:00.476Z,1001.60
2022-12-25T12:20:00.474Z,1001.63
2022-12-25T12:21:00.464Z,1001.68
2022-12-25T12:22:00.455Z,1001.73
2022-12-25T12:23:00.471Z,1001.77
2022-12-25T12:24:00.469Z,1001.82
2022-12-25T12:25:00.407Z,1001.81
2022-12-25T12:26:00.417Z,1001.81
2022-12-25T12:27:00.381Z,1001.81
2022-12-25T12:28:05.368Z,1001.81
2022-12-25T12:29:00.432Z,1001.82
2022-12-25T12:30:00.366Z,1001.84
2022-12-25T12:31:00.339Z,1001.84
2022-12-25T12:32:00.407Z,1001.84
2022-12-25T12:33:00.330Z,1001.83
2022-12-25T12:34:00.370Z,1001.84
2022-12-25T12:35:00.297Z,1001.86
2022-12-25T12:36:00.382Z,1001.89
2022-12-25T12:37:00.276Z,1001.89
2022-12-25T12:38:00.303Z,1001.92
2022-12-25T12:39:00.254Z,1001.90
2022-12-25T12:40:00.272Z,1001.86
2022-12-25T12:41:00.235Z,1001.81
2022-12-25T12:42:00.259Z,1001.77
2022-12-25T12:43:00.216Z,1001.74
2022-12-25T12:44:00.208Z,1001.73
2022-12-25T12:45:00.191Z,1001.71
2022-12-25T12:46:00.234Z,1001.67
2022-12-25T12:47:00.173Z,1001.66
2022-12-25T12:48:00.207Z,1001.66
2022-12-25T12:49:00.173Z,1001.68
2022-12-25T12:50:00.270Z,1001.72
2022-12-25T12:51:00.126Z,1001.75
2022-12-25T12:52:00.129Z,1001.78
2022-12-25T12:53:00.138Z,1001.79
2022-12-25T12:54:00.115Z,1001.79
2022-12-25T12:55:00.126Z,1001.80
2022-12-25T12:56:00.107Z,1001.82
2022-12-25T12:57:00.099Z,1001.84
2022-12-25T12:58:00.132Z,1001.84
2022-12-25T12:59:00.072Z,1001.83
2022-12-25T13:00:06.590Z,1001.83
2022-12-25T13:01:00.200Z,1001.80
2022-12-25T13:02:00.277Z,1001.79
2022-12-25T13:03:00.181Z,1001.78
2022-12-25T13:03:59.997Z,1001.77
2022-12-25T13:04:59.996Z,1001.75
2022-12-25T13:05:59.976Z,1001.73
2022-12-25T13:06:59.952Z,1001.72
2022-12-25T13:07:59.946Z,1001.69
2022-12-25T13:08:59.932Z,1001.66
2022-12-25T13:09:59.941Z,1001.62
2022-12-25T13:10:59.928Z,1001.59
2022-12-25T13:11:59.913Z,1001.55
2022-12-25T13:12:59.884Z,1001.51
2022-12-25T13:13:59.887Z,1001.48
2022-12-25T13:14:59.884Z,1001.47
2022-12-25T13:15:59.864Z,1001.44
2022-12-25T13:16:59.896Z,1001.44
2022-12-25T13:17:59.849Z,1001.48
2022-12-25T13:18:59.826Z,1001.50
2022-12-25T13:19:59.834Z,1001.53
2022-12-25T13:20:59.791Z,1001.56
2022-12-25T13:21:59.845Z,1001.59
2022-12-25T13:22:59.782Z,1001.63
2022-12-25T13:23:59.800Z,1001.66
2022-12-25T13:24:59.763Z,1001.68
2022-12-25T13:25:59.770Z,1001.70
2022-12-25T13:26:59.787Z,1001.75
2022-12-25T13:27:59.791Z,1001.78
2022-12-25T13:28:59.722Z,1001.80
2022-12-25T13:29:59.735Z,1001.80
2022-12-25T13:30:59.686Z,1001.78
2022-12-25T13:31:59.786Z,1001.76
2022-12-25T13:32:59.836Z,1001.74
2022-12-25T13:33:59.697Z,1001.73
2022-12-25T13:34:59.655Z,1001.70
2022-12-25T13:35:59.651Z,1001.67
2022-12-25T13:36:59.617Z,1001.62
2022-12-25T13:37:59.658Z,1001.59
2022-12-25T13:38:59.627Z,1001.57
2022-12-25T13:39:59.605Z,1001.56
2022-12-25T13:40:59.583Z,1001.54
2022-12-25T13:41:59.580Z,1001.52
2022-12-25T13:42:59.560Z,1001.50
2022-12-25T13:43:59.561Z,1001.46
2022-12-25T13:44:59.577Z,1001.43
2022-12-25T13:45:59.632Z,1001.41
2022-12-25T13:46:59.552Z,1001.38
2022-12-25T13:47:59.517Z,1001.34
2022-12-25T13:48:59.495Z,1001.29
2022-12-25T13:49:59.502Z,1001.28
2022-12-25T13:50:59.490Z,1001.26
2022-12-25T13:51:59.482Z,1001.24
2022-12-25T13:52:59.467Z,1001.22
2022-12-25T13:53:59.474Z,1001.21
2022-12-25T13:54:59.432Z,1001.20
2022-12-25T13:55:59.433Z,1001.19
2022-12-25T13:56:59.412Z,1001.18
2022-12-25T13:57:59.404Z,1001.21
2022-12-25T13:58:59.393Z,1001.25
2022-12-25T13:59:59.418Z,1001.30
2022-12-25T14:00:59.414Z,1001.34
2022-12-25T14:01:59.612Z,1001.37
2022-12-25T14:02:59.527Z,1001.39
2022-12-25T14:03:59.373Z,1001.41
2022-12-25T14:04:59.327Z,1001.40
2022-12-25T14:05:59.380Z,1001.40
2022-12-25T14:06:59.310Z,1001.37
2022-12-25T14:07:59.327Z,1001.35
2022-12-25T14:08:59.310Z,1001.31
2022-12-25T14:09:59.300Z,1001.30
2022-12-25T14:10:59.253Z,1001.30
2022-12-25T14:11:59.265Z,1001.32
2022-12-25T14:12:59.230Z,1001.33
2022-12-25T14:13:59.251Z,1001.34
2022-12-25T14:14:59.223Z,1001.37
2022-12-25T14:15:59.214Z,1001.41
2022-12-25T14:16:59.378Z,1001.44
2022-12-25T14:17:59.189Z,1001.45
2022-12-25T14:18:59.171Z,1001.45
2022-12-25T14:20:04.012Z,1001.47
2022-12-25T14:20:59.199Z,1001.47
2022-12-25T14:21:59.184Z,1001.46
2022-12-25T14:22:59.127Z,1001.44
2022-12-25T14:23:59.147Z,1001.44
2022-12-25T14:24:59.109Z,1001.45
2022-12-25T14:25:59.122Z,1001.45
2022-12-25T14:26:59.092Z,1001.43
2022-12-25T14:27:59.083Z,1001.38
2022-12-25T14:28:59.059Z,1001.39
2022-12-25T14:29:59.071Z,1001.43
2022-12-25T14:30:59.048Z,1001.44
2022-12-25T14:31:59.083Z,1001.44
2022-12-25T14:32:59.025Z,1001.44
2022-12-25T14:33:59.028Z,1001.43
2022-12-25T14:34:58.996Z,1001.42
2022-12-25T14:35:58.999Z,1001.40
2022-12-25T14:36:58.975Z,1001.40
2022-12-25T14:37:59.013Z,1001.39
2022-12-25T14:38:58.961Z,1001.37
2022-12-25T14:39:58.976Z,1001.34
2022-12-25T14:40:58.932Z,1001.33
2022-12-25T14:41:58.932Z,1001.33
2022-12-25T14:42:58.910Z,1001.33
2022-12-25T14:43:58.932Z,1001.38
2022-12-25T14:44:58.902Z,1001.43
2022-12-25T14:45:58.930Z,1001.46
2022-12-25T14:46:58.862Z,1001.47
2022-12-25T14:47:58.906Z,1001.50
2022-12-25T14:48:58.858Z,1001.51
2022-12-25T14:49:58.851Z,1001.53
2022-12-25T14:50:58.862Z,1001.57
2022-12-25T14:51:58.828Z,1001.59
2022-12-25T14:52:58.817Z,1001.60
2022-12-25T14:53:58.822Z,1001.61
2022-12-25T14:54:58.778Z,1001.62
2022-12-25T14:55:58.785Z,1001.61
2022-12-25T14:56:58.757Z,1001.55
2022-12-25T14:57:58.769Z,1001.49
2022-12-25T14:58:58.739Z,1001.45
2022-12-25T14:59:58.732Z,1001.44
2022-12-25T15:00:58.756Z,1001.45
2022-12-25T15:01:58.962Z,1001.47
2022-12-25T15:02:58.866Z,1001.46
2022-12-25T15:03:58.772Z,1001.44
2022-12-25T15:04:58.683Z,1001.43
2022-12-25T15:05:58.758Z,1001.41
2022-12-25T15:06:58.649Z,1001.41
2022-12-25T15:07:58.656Z,1001.40
2022-12-25T15:08:58.645Z,1001.40
2022-12-25T15:10:25.580Z,1001.37
2022-12-25T15:11:03.168Z,1001.36
2022-12-25T15:11:58.621Z,1001.32
2022-12-25T15:12:58.582Z,1001.29
2022-12-25T15:13:58.590Z,1001.28
2022-12-25T15:14:58.575Z,1001.28
2022-12-25T15:15:58.627Z,1001.28
2022-12-25T15:16:58.541Z,1001.28
2022-12-25T15:17:58.538Z,1001.30
2022-12-25T15:18:58.514Z,1001.31
2022-12-25T15:19:58.530Z,1001.30
2022-12-25T15:20:58.512Z,1001.31
2022-12-25T15:21:58.517Z,1001.31
2022-12-25T15:23:58.490Z,1001.35
2022-12-25T15:25:01.783Z,1001.36
2022-12-25T15:25:58.455Z,1001.37
2022-12-25T15:26:58.429Z,1001.38
2022-12-25T15:27:58.429Z,1001.39
2022-12-25T15:28:58.426Z,1001.39
2022-12-25T15:30:14.069Z,1001.38
2022-12-25T15:30:58.447Z,1001.37
2022-12-25T15:31:58.390Z,1001.35
2022-12-25T15:32:58.370Z,1001.33
2022-12-25T15:33:58.399Z,1001.31
2022-12-25T15:34:58.354Z,1001.30
2022-12-25T15:35:58.421Z,1001.32
2022-12-25T15:36:58.341Z,1001.34
2022-12-25T15:37:58.314Z,1001.36
2022-12-25T15:38:58.297Z,1001.35
2022-12-25T15:39:58.311Z,1001.34
2022-12-25T15:40:58.289Z,1001.31
2022-12-25T15:41:58.282Z,1001.29
2022-12-25T15:42:58.255Z,1001.28
2022-12-25T15:43:58.255Z,1001.27
2022-12-25T15:44:58.232Z,1001.26
2022-12-25T15:45:58.269Z,1001.27
2022-12-25T15:46:58.213Z,1001.30
2022-12-25T15:47:58.222Z,1001.32
2022-12-25T15:48:58.193Z,1001.33
2022-12-25T15:49:58.193Z,1001.31
2022-12-25T15:50:58.169Z,1001.31
2022-12-25T15:51:58.180Z,1001.32
2022-12-25T15:52:58.141Z,1001.33
2022-12-25T15:53:58.155Z,1001.35
2022-12-25T15:54:58.123Z,1001.38
2022-12-25T15:55:58.165Z,1001.42
2022-12-25T15:56:58.108Z,1001.42